Time;durP1;ratioP1;P1;durP2;ratioP2;P2;SDS_P1;SDS_P2;PMS_P1;PMS_P2;Temp;Humidity;BMP_temperature;BMP_pressure;BME280_temperature;BME280_humidity;BME280_pressure;Samples;Min_cycle;Max_cycle;Signal;HPM_P1;HPM_P2
2022/03/20 00:00:54;;;;;;;12.23;3.45;;;;;;;;;;10373761;28;20052;-70
2022/03/20 00:05:56;;;;;;;11.65;4.22;;;;;;;;;;10386266;28;20120;-71
2022/03/20 00:10:59;;;;;;;8.05;3.30;;;;;;;;;;10384382;28;20053;-71
2022/03/20 00:16:01;;;;;;;8.30;3.50;;;;;;;;;;10379661;28;20105;-71
2022/03/20 00:21:03;;;;;;;9.80;3.53;;;;;;;;;;10374122;28;20103;-70
2022/03/20 00:26:06;;;;;;;9.25;3.33;;;;;;;;;;10378162;28;20056;-69
2022/03/20 00:31:07;;;;;;;12.43;4.00;;;;;;;;;;10373274;28;20611;-71
2022/03/20 00:36:08;;;;;;;12.55;4.45;;;;;;;;;;10377426;28;20049;-71
2022/03/20 00:41:10;;;;;;;15.00;4.50;;;;;;;;;;10372153;28;20053;-69
2022/03/20 00:46:12;;;;;;;12.68;4.65;;;;;;;;;;10392022;28;20498;-70
2022/03/20 00:51:13;;;;;;;11.18;3.85;;;;;;;;;;10383429;28;20100;-70
2022/03/20 00:56:15;;;;;;;12.93;5.10;;;;;;;;;;10386789;28;20053;-69
2022/03/20 01:01:17;;;;;;;10.65;4.20;;;;;;;;;;10380570;28;20049;-68
2022/03/20 01:06:21;;;;;;;18.15;5.22;;;;;;;;;;10390918;28;20508;-70
2022/03/20 01:11:22;;;;;;;11.18;4.55;;;;;;;;;;10383782;28;20053;-70
2022/03/20 01:16:24;;;;;;;13.32;5.53;;;;;;;;;;10384524;28;20050;-71
2022/03/20 01:21:25;;;;;;;11.00;5.22;;;;;;;;;;10357144;28;20089;-70
2022/03/20 01:26:26;;;;;;;14.35;5.65;;;;;;;;;;10362971;28;20636;-71
2022/03/20 01:31:28;;;;;;;13.98;5.00;;;;;;;;;;10377074;28;20133;-71
2022/03/20 01:36:30;;;;;;;14.52;4.88;;;;;;;;;;10385348;28;20046;-71
2022/03/20 01:41:31;;;;;;;13.60;6.07;;;;;;;;;;10376846;28;20059;-71
2022/03/20 01:46:32;;;;;;;14.70;6.18;;;;;;;;;;10368523;28;20096;-71
2022/03/20 01:56:55;;;;;;;18.38;6.57;;;;;;;;;;10354202;28;20034;-69
2022/03/20 02:01:56;;;;;;;21.77;6.75;;;;;;;;;;10374355;28;20680;-69
2022/03/20 02:07:00;;;;;;;17.13;6.95;;;;;;;;;;10379311;28;20096;-71
2022/03/20 02:12:02;;;;;;;21.40;7.75;;;;;;;;;;10385115;28;20049;-70
2022/03/20 02:17:04;;;;;;;16.05;7.25;;;;;;;;;;10378067;28;20099;-70
2022/03/20 02:22:06;;;;;;;18.70;7.75;;;;;;;;;;10367399;28;20050;-71
2022/03/20 02:27:09;;;;;;;20.38;8.60;;;;;;;;;;10381001;28;20037;-71
2022/03/20 02:32:12;;;;;;;24.58;9.25;;;;;;;;;;10368993;28;20050;-71
2022/03/20 02:37:15;;;;;;;33.97;10.60;;;;;;;;;;10360898;28;20045;-71
2022/03/20 02:42:17;;;;;;;28.90;10.43;;;;;;;;;;10361833;28;20050;-70
2022/03/20 02:47:23;;;;;;;29.55;11.50;;;;;;;;;;10380912;28;20051;-71
2022/03/20 02:52:28;;;;;;;25.60;9.27;;;;;;;;;;10371036;28;20077;-71
2022/03/20 02:57:30;;;;;;;58.05;13.30;;;;;;;;;;10365968;28;20125;-69
2022/03/20 03:02:38;;;;;;;19.88;9.23;;;;;;;;;;10385710;28;20073;-72
2022/03/20 03:13:00;;;;;;;;;;;;;;;;;;10376059;28;20041;-72
2022/03/20 03:18:02;;;;;;;22.13;8.07;;;;;;;;;;10384086;28;19964;-70
2022/03/20 03:23:04;;;;;;;23.15;9.45;;;;;;;;;;10383470;28;20769;-70
2022/03/20 03:28:09;;;;;;;20.05;10.20;;;;;;;;;;10380435;28;20168;-71
2022/03/20 03:33:11;;;;;;;23.08;10.70;;;;;;;;;;10375039;28;20283;-72
2022/03/20 03:38:16;;;;;;;25.42;10.55;;;;;;;;;;10348913;28;20057;-71
2022/03/20 03:43:18;;;;;;;22.92;10.75;;;;;;;;;;10358494;28;20041;-69
2022/03/20 03:48:20;;;;;;;23.67;11.48;;;;;;;;;;10358307;28;20145;-71
2022/03/20 03:53:21;;;;;;;22.33;10.05;;;;;;;;;;10372428;28;20056;-71
2022/03/20 03:58:23;;;;;;;30.55;10.98;;;;;;;;;;10369381;28;20069;-71
2022/03/20 04:03:25;;;;;;;27.73;11.60;;;;;;;;;;10383821;28;20044;-71
2022/03/20 04:08:26;;;;;;;24.88;11.07;;;;;;;;;;10372609;28;20828;-71
2022/03/20 04:13:29;;;;;;;25.38;10.75;;;;;;;;;;10380378;28;20055;-69
2022/03/20 04:18:30;;;;;;;26.88;11.63;;;;;;;;;;10380981;28;20053;-71
2022/03/20 04:23:48;;;;;;;23.80;10.77;;;;;;;;;;10383805;28;20038;-71
2022/03/20 04:28:51;;;;;;;22.42;10.60;;;;;;;;;;10370287;28;20038;-70
2022/03/20 04:33:54;;;;;;;23.83;10.95;;;;;;;;;;10377139;28;20123;-71
2022/03/20 04:38:55;;;;;;;24.33;10.52;;;;;;;;;;10377385;28;20568;-71
2022/03/20 04:43:57;;;;;;;23.77;10.43;;;;;;;;;;10367215;28;20053;-71
2022/03/20 04:59:39;;;;;;;24.33;11.93;;;;;;;;;;10368496;28;20053;-71
2022/03/20 05:04:40;;;;;;;24.75;10.70;;;;;;;;;;10383838;28;20133;-70
2022/03/20 05:15:02;;;;;;;21.97;11.60;;;;;;;;;;10390709;28;20041;-72
2022/03/20 05:20:04;;;;;;;27.83;11.60;;;;;;;;;;10390175;28;20064;-71
2022/03/20 05:25:08;;;;;;;20.35;10.88;;;;;;;;;;10375555;28;20683;-71
2022/03/20 05:30:10;;;;;;;25.25;11.90;;;;;;;;;;10389220;28;20421;-72
2022/03/20 05:35:11;;;;;;;26.95;11.40;;;;;;;;;;10379475;28;20465;-71
2022/03/20 05:40:13;;;;;;;29.13;13.30;;;;;;;;;;10372497;28;20076;-71
2022/03/20 05:45:15;;;;;;;26.98;13.40;;;;;;;;;;10390017;28;20557;-71
2022/03/20 05:50:16;;;;;;;23.75;11.52;;;;;;;;;;10386340;28;20084;-71
2022/03/20 05:55:17;;;;;;;22.65;11.77;;;;;;;;;;10387358;28;20490;-71
2022/03/20 06:00:19;;;;;;;24.95;12.18;;;;;;;;;;10395863;28;20052;-71
2022/03/20 06:05:22;;;;;;;28.27;12.45;;;;;;;;;;10397977;28;20060;-71
2022/03/20 06:10:23;;;;;;;25.75;11.98;;;;;;;;;;10393003;28;20044;-71
2022/03/20 06:15:25;;;;;;;27.60;11.40;;;;;;;;;;10377882;28;20053;-71
2022/03/20 06:20:27;;;;;;;23.02;11.60;;;;;;;;;;10373265;28;20046;-70
2022/03/20 06:25:28;;;;;;;25.88;11.82;;;;;;;;;;10391114;28;20034;-70
2022/03/20 06:30:32;;;;;;;27.15;11.32;;;;;;;;;;10391704;28;20938;-71
2022/03/20 06:35:34;;;;;;;26.38;11.55;;;;;;;;;;10402798;28;20042;-71
2022/03/20 06:40:35;;;;;;;27.23;11.38;;;;;;;;;;10383442;28;20042;-71
2022/03/20 06:45:38;;;;;;;23.85;12.18;;;;;;;;;;10383285;28;20034;-70
2022/03/20 06:50:39;;;;;;;24.17;11.25;;;;;;;;;;10383990;28;20048;-72
2022/03/20 06:55:41;;;;;;;26.52;11.18;;;;;;;;;;10383543;28;20063;-70
2022/03/20 07:00:43;;;;;;;25.95;11.35;;;;;;;;;;10395903;28;20065;-68
2022/03/20 07:05:45;;;;;;;24.60;11.25;;;;;;;;;;10416476;28;20091;-68
2022/03/20 07:10:47;;;;;;;27.23;11.82;;;;;;;;;;10382495;28;20432;-69
2022/03/20 07:15:49;;;;;;;24.02;11.68;;;;;;;;;;10384638;28;20436;-69
2022/03/20 07:20:51;;;;;;;26.20;11.07;;;;;;;;;;10387273;28;20221;-70
2022/03/20 07:31:13;;;;;;;24.48;12.13;;;;;;;;;;10383926;28;20068;-69
2022/03/20 07:36:15;;;;;;;27.60;13.00;;;;;;;;;;10380170;28;20120;-69
2022/03/20 07:41:17;;;;;;;26.27;11.63;;;;;;;;;;10379711;28;20050;-69
2022/03/20 07:46:18;;;;;;;24.30;11.90;;;;;;;;;;10390834;28;20041;-69
2022/03/20 07:51:21;;;;;;;24.33;10.70;;;;;;;;;;10384594;28;20067;-69
2022/03/20 07:56:23;;;;;;;21.60;10.75;;;;;;;;;;10362875;28;20068;-69
2022/03/20 08:01:25;;;;;;;23.40;11.50;;;;;;;;;;10385611;28;20699;-68
2022/03/20 08:06:28;;;;;;;24.17;12.48;;;;;;;;;;10389378;28;20046;-69
2022/03/20 08:11:31;;;;;;;29.88;11.63;;;;;;;;;;10388633;28;20559;-67
2022/03/20 08:16:35;;;;;;;26.98;12.48;;;;;;;;;;10393191;28;20051;-66
2022/03/20 08:21:38;;;;;;;26.50;12.52;;;;;;;;;;10385730;28;20107;-71
2022/03/20 08:26:40;;;;;;;24.45;12.30;;;;;;;;;;10390539;28;20520;-69
2022/03/20 08:31:45;;;;;;;27.10;12.40;;;;;;;;;;10386827;28;20263;-70
2022/03/20 08:36:47;;;;;;;23.85;12.05;;;;;;;;;;10376400;28;20050;-69
2022/03/20 08:41:48;;;;;;;25.17;12.05;;;;;;;;;;10367998;28;20048;-69
2022/03/20 08:46:50;;;;;;;32.65;14.05;;;;;;;;;;10375997;28;20046;-69
2022/03/20 08:51:51;;;;;;;27.88;12.38;;;;;;;;;;10381302;28;20056;-70
2022/03/20 08:56:53;;;;;;;24.20;12.77;;;;;;;;;;10383264;28;20041;-68
2022/03/20 09:01:55;;;;;;;26.63;13.15;;;;;;;;;;10378737;28;20133;-70
2022/03/20 09:06:57;;;;;;;24.58;12.48;;;;;;;;;;10397173;28;20100;-71
2022/03/20 09:11:59;;;;;;;30.92;14.93;;;;;;;;;;10379669;28;20075;-69
2022/03/20 09:22:21;;;;;;;33.92;14.43;;;;;;;;;;10396989;28;20706;-68
2022/03/20 09:27:25;;;;;;;28.67;14.07;;;;;;;;;;10390459;28;20040;-68
2022/03/20 09:32:27;;;;;;;30.70;14.55;;;;;;;;;;10401869;28;20405;-69
2022/03/20 09:37:28;;;;;;;23.60;12.07;;;;;;;;;;10403579;28;20555;-69
2022/03/20 09:42:29;;;;;;;28.02;14.27;;;;;;;;;;10386524;28;20061;-71
2022/03/20 09:47:34;;;;;;;28.55;14.27;;;;;;;;;;10392500;28;20052;-69
2022/03/20 09:52:36;;;;;;;29.20;13.68;;;;;;;;;;10389109;28;20029;-69
2022/03/20 09:57:38;;;;;;;25.90;11.90;;;;;;;;;;10390316;28;20048;-68
2022/03/20 10:02:39;;;;;;;24.10;12.30;;;;;;;;;;10394262;28;20671;-68
2022/03/20 10:07:43;;;;;;;31.88;14.65;;;;;;;;;;10399252;28;20533;-64
2022/03/20 10:12:56;;;;;;;28.83;14.05;;;;;;;;;;10396904;28;20509;-63
2022/03/20 10:18:05;;;;;;;20.17;10.95;;;;;;;;;;10387684;28;20556;-63
2022/03/20 10:23:26;;;;;;;29.13;14.68;;;;;;;;;;10396983;28;20541;-69
2022/03/20 10:28:55;;;;;;;27.60;14.73;;;;;;;;;;10385573;28;20502;-69
2022/03/20 10:34:03;;;;;;;28.38;13.95;;;;;;;;;;10389436;28;20060;-68
2022/03/20 10:39:12;;;;;;;27.38;12.43;;;;;;;;;;10402851;28;20516;-72
2022/03/20 10:44:14;;;;;;;21.40;10.95;;;;;;;;;;10387585;28;20403;-71
2022/03/20 10:49:20;;;;;;;23.73;11.40;;;;;;;;;;10392120;28;20041;-71
2022/03/20 10:54:22;;;;;;;24.48;11.95;;;;;;;;;;10398169;28;20486;-69
2022/03/20 10:59:26;;;;;;;21.20;10.57;;;;;;;;;;10387370;28;20517;-68
2022/03/20 11:04:28;;;;;;;24.25;12.23;;;;;;;;;;10389549;28;20133;-70
2022/03/20 11:09:30;;;;;;;19.35;10.48;;;;;;;;;;10393268;28;20512;-68
2022/03/20 11:14:35;;;;;;;27.02;11.32;;;;;;;;;;10383382;28;20091;-70
2022/03/20 11:19:46;;;;;;;28.75;12.63;;;;;;;;;;10394262;28;20494;-71
2022/03/20 11:24:51;;;;;;;31.70;13.20;;;;;;;;;;10382401;28;20134;-72
2022/03/20 11:29:59;;;;;;;19.73;10.35;;;;;;;;;;10400091;28;20088;-71
2022/03/20 11:35:03;;;;;;;24.23;10.68;;;;;;;;;;10400861;28;20164;-68
2022/03/20 11:40:07;;;;;;;20.35;10.23;;;;;;;;;;10393041;28;20062;-70
2022/03/20 11:45:11;;;;;;;22.15;9.55;;;;;;;;;;10395676;28;20099;-70
2022/03/20 11:50:13;;;;;;;19.10;10.38;;;;;;;;;;10379420;28;20715;-69
2022/03/20 11:55:24;;;;;;;22.67;11.60;;;;;;;;;;10400250;28;20053;-70
2022/03/20 12:00:30;;;;;;;23.67;10.32;;;;;;;;;;10392957;28;20421;-68
2022/03/20 12:05:55;;;;;;;18.60;10.40;;;;;;;;;;10402281;28;20042;-69
2022/03/20 12:11:03;;;;;;;24.42;11.85;;;;;;;;;;10395180;28;20133;-69
2022/03/20 12:16:05;;;;;;;21.92;11.52;;;;;;;;;;10399967;28;20422;-72
2022/03/20 12:21:06;;;;;;;19.80;10.32;;;;;;;;;;10382469;28;20049;-69
2022/03/20 12:26:24;;;;;;;26.02;11.80;;;;;;;;;;10398173;28;20045;-70
2022/03/20 12:31:26;;;;;;;19.15;10.40;;;;;;;;;;10375119;28;20045;-70
2022/03/20 12:36:37;;;;;;;19.13;9.77;;;;;;;;;;10383712;28;20042;-70
2022/03/20 12:41:39;;;;;;;22.35;10.45;;;;;;;;;;10374569;28;20055;-72
2022/03/20 12:46:42;;;;;;;21.92;10.20;;;;;;;;;;10387373;28;20038;-69
2022/03/20 12:51:47;;;;;;;19.65;9.68;;;;;;;;;;10368517;28;20104;-68
2022/03/20 12:56:55;;;;;;;20.63;9.60;;;;;;;;;;10359387;28;20050;-71
2022/03/20 13:02:03;;;;;;;18.85;9.60;;;;;;;;;;10376018;28;20071;-68
2022/03/20 13:07:22;;;;;;;21.58;10.70;;;;;;;;;;10391893;28;20073;-69
2022/03/20 13:12:24;;;;;;;17.95;9.48;;;;;;;;;;10385507;28;20717;-70
2022/03/20 13:17:25;;;;;;;19.58;9.70;;;;;;;;;;10395991;28;20107;-70
2022/03/20 13:22:36;;;;;;;21.23;9.52;;;;;;;;;;10385377;28;20046;-69
2022/03/20 13:27:43;;;;;;;18.48;9.73;;;;;;;;;;10387761;28;20113;-70
2022/03/20 13:32:53;;;;;;;18.17;8.57;;;;;;;;;;10402640;28;20472;-69
2022/03/20 13:38:00;;;;;;;17.90;9.52;;;;;;;;;;10394647;28;20045;-71
2022/03/20 13:43:02;;;;;;;23.33;8.82;;;;;;;;;;10378926;28;20049;-70
2022/03/20 13:48:06;;;;;;;15.65;8.20;;;;;;;;;;10379170;28;21062;-72
2022/03/20 13:53:11;;;;;;;16.52;9.25;;;;;;;;;;10397786;28;20057;-69
2022/03/20 13:58:13;;;;;;;23.25;11.77;;;;;;;;;;10390142;28;20064;-70
2022/03/20 14:03:26;;;;;;;22.65;10.32;;;;;;;;;;10391952;28;20061;-68
2022/03/20 14:08:52;;;;;;;17.17;8.63;;;;;;;;;;10414182;28;20087;-73
2022/03/20 14:14:01;;;;;;;17.60;8.93;;;;;;;;;;10420207;28;20750;-70
2022/03/20 14:19:12;;;;;;;21.35;9.52;;;;;;;;;;10425262;28;20041;-68
2022/03/20 14:24:16;;;;;;;21.23;9.70;;;;;;;;;;10420260;28;20057;-72
2022/03/20 14:40:19;;;;;;;19.90;10.07;;;;;;;;;;10410010;28;20053;-72
2022/03/20 14:45:21;;;;;;;17.70;8.88;;;;;;;;;;10411531;28;20188;-69
2022/03/20 14:50:23;;;;;;;18.25;9.63;;;;;;;;;;10412795;28;20033;-70
2022/03/20 14:55:25;;;;;;;20.38;8.75;;;;;;;;;;10412833;28;20517;-70
2022/03/20 15:00:27;;;;;;;18.55;9.02;;;;;;;;;;10405677;28;20045;-68
2022/03/20 15:05:28;;;;;;;20.63;8.73;;;;;;;;;;10410226;28;20041;-69
2022/03/20 15:15:57;;;;;;;17.08;8.93;;;;;;;;;;10403901;28;20056;-71
2022/03/20 15:20:59;;;;;;;17.90;10.15;;;;;;;;;;10409564;28;20124;-69
2022/03/20 15:26:00;;;;;;;17.17;9.35;;;;;;;;;;10402011;28;20467;-69
2022/03/20 15:31:05;;;;;;;18.48;9.00;;;;;;;;;;10400930;28;20044;-70
2022/03/20 15:36:07;;;;;;;21.80;9.07;;;;;;;;;;10399929;28;20564;-70
2022/03/20 15:41:10;;;;;;;18.77;9.77;;;;;;;;;;10401603;28;20578;-69
2022/03/20 15:46:12;;;;;;;30.50;11.80;;;;;;;;;;10399366;28;20083;-68
2022/03/20 15:51:16;;;;;;;46.83;15.02;;;;;;;;;;10395275;28;20060;-70
2022/03/20 15:56:18;;;;;;;17.60;8.45;;;;;;;;;;10397412;28;20198;-71
2022/03/20 16:01:45;;;;;;;18.20;9.10;;;;;;;;;;10398988;28;20588;-69
2022/03/20 16:06:47;;;;;;;20.88;9.60;;;;;;;;;;10402513;28;20076;-70
2022/03/20 16:11:48;;;;;;;32.78;14.02;;;;;;;;;;10394776;28;20637;-69
2022/03/20 16:16:50;;;;;;;14.98;8.00;;;;;;;;;;10394713;28;20060;-69
2022/03/20 16:21:51;;;;;;;19.38;9.50;;;;;;;;;;10400759;28;20042;-68
2022/03/20 16:32:22;;;;;;;18.17;9.13;;;;;;;;;;10404346;28;20069;-70
2022/03/20 16:37:24;;;;;;;18.33;8.75;;;;;;;;;;10403671;28;21044;-70
2022/03/20 16:42:25;;;;;;;16.67;9.18;;;;;;;;;;10402070;28;20572;-68
2022/03/20 16:47:27;;;;;;;22.02;8.80;;;;;;;;;;10399537;28;20118;-68
2022/03/20 16:52:28;;;;;;;16.88;8.43;;;;;;;;;;10393992;28;20051;-69
2022/03/20 16:57:29;;;;;;;15.32;8.07;;;;;;;;;;10400743;28;20037;-70
2022/03/20 17:02:34;;;;;;;18.10;8.35;;;;;;;;;;10406814;28;20042;-68
2022/03/20 17:07:35;;;;;;;17.25;8.57;;;;;;;;;;10408595;28;20052;-69
2022/03/20 17:12:38;;;;;;;14.90;8.35;;;;;;;;;;10399558;28;20049;-69
2022/03/20 17:17:39;;;;;;;18.52;8.05;;;;;;;;;;10400661;28;20045;-69
2022/03/20 17:22:42;;;;;;;19.30;7.97;;;;;;;;;;10389094;28;20066;-68
2022/03/20 17:27:44;;;;;;;18.85;8.98;;;;;;;;;;10376498;28;20030;-68
2022/03/20 17:32:45;;;;;;;17.33;7.97;;;;;;;;;;10376206;28;20060;-68
2022/03/20 17:37:47;;;;;;;16.90;8.27;;;;;;;;;;10382214;28;20137;-68
2022/03/20 17:42:50;;;;;;;18.55;7.65;;;;;;;;;;10386548;28;20040;-68
2022/03/20 17:47:51;;;;;;;14.50;7.43;;;;;;;;;;10390348;28;20042;-68
2022/03/20 17:52:52;;;;;;;14.57;8.02;;;;;;;;;;10390678;28;20045;-68
2022/03/20 17:57:55;;;;;;;17.67;7.30;;;;;;;;;;10394126;28;20041;-69
2022/03/20 18:08:18;;;;;;;14.50;7.18;;;;;;;;;;10396911;28;20046;-69
2022/03/20 18:13:21;;;;;;;19.75;7.80;;;;;;;;;;10368750;28;20053;-68
2022/03/20 18:18:26;;;;;;;14.00;6.43;;;;;;;;;;10368967;28;20115;-69
2022/03/20 18:23:28;;;;;;;12.90;6.35;;;;;;;;;;10376631;28;20045;-67
2022/03/20 18:28:29;;;;;;;15.07;7.07;;;;;;;;;;10379582;28;20166;-67
2022/03/20 18:33:31;;;;;;;20.85;7.50;;;;;;;;;;10372774;28;20049;-69
2022/03/20 18:38:32;;;;;;;13.80;6.93;;;;;;;;;;10379188;28;20056;-67
2022/03/20 18:43:37;;;;;;;13.15;6.57;;;;;;;;;;10390030;28;20045;-67
2022/03/20 18:48:39;;;;;;;13.15;6.05;;;;;;;;;;10391536;28;20141;-66
2022/03/20 18:53:43;;;;;;;12.82;6.63;;;;;;;;;;10392472;28;20079;-68
2022/03/20 18:58:44;;;;;;;16.02;7.82;;;;;;;;;;10381634;28;20062;-68
2022/03/20 19:03:46;;;;;;;13.35;6.53;;;;;;;;;;10402448;28;20045;-68
2022/03/20 19:08:52;;;;;;;16.40;7.75;;;;;;;;;;10395020;28;20068;-67
2022/03/20 19:13:55;;;;;;;15.20;7.68;;;;;;;;;;10391378;28;20053;-66
2022/03/20 19:18:56;;;;;;;15.18;7.20;;;;;;;;;;10393327;28;20093;-68
2022/03/20 19:23:58;;;;;;;18.17;6.93;;;;;;;;;;10393139;28;20046;-69
2022/03/20 19:29:00;;;;;;;15.57;7.45;;;;;;;;;;10396377;28;20042;-68
2022/03/20 19:44:43;;;;;;;16.40;7.50;;;;;;;;;;10389654;28;20059;-68
2022/03/20 19:49:45;;;;;;;18.50;8.05;;;;;;;;;;10384700;28;20057;-69
2022/03/20 19:54:51;;;;;;;15.85;7.60;;;;;;;;;;10376033;28;20577;-71
2022/03/20 19:59:54;;;;;;;14.95;7.57;;;;;;;;;;10374805;28;20049;-66
2022/03/20 20:04:55;;;;;;;15.40;7.82;;;;;;;;;;10400687;28;20534;-68
2022/03/20 20:09:57;;;;;;;14.40;8.35;;;;;;;;;;10392392;28;20053;-68
2022/03/20 20:14:58;;;;;;;17.65;7.80;;;;;;;;;;10394003;28;20045;-67
2022/03/20 20:20:03;;;;;;;20.27;9.50;;;;;;;;;;10387398;28;20081;-68
2022/03/20 20:25:05;;;;;;;20.13;8.73;;;;;;;;;;10392265;28;20052;-68
2022/03/20 20:30:09;;;;;;;16.23;7.53;;;;;;;;;;10388443;28;20060;-70
2022/03/20 20:35:10;;;;;;;16.45;8.02;;;;;;;;;;10388929;28;20053;-69
2022/03/20 20:40:12;;;;;;;17.48;8.05;;;;;;;;;;10390409;28;20053;-67
2022/03/20 20:45:13;;;;;;;18.73;8.32;;;;;;;;;;10386091;28;20041;-69
2022/03/20 20:50:15;;;;;;;16.00;8.10;;;;;;;;;;10390883;28;20503;-69
2022/03/20 20:55:16;;;;;;;19.25;8.90;;;;;;;;;;10389765;28;20053;-69
2022/03/20 21:00:18;;;;;;;17.33;8.30;;;;;;;;;;10399063;28;20049;-68
2022/03/20 21:05:20;;;;;;;20.63;8.30;;;;;;;;;;10410706;28;20049;-69
2022/03/20 21:15:43;;;;;;;15.85;8.15;;;;;;;;;;10400500;28;20046;-69
2022/03/20 21:20:44;;;;;;;16.80;7.78;;;;;;;;;;10399261;28;20076;-67
2022/03/20 21:25:47;;;;;;;14.73;7.80;;;;;;;;;;10399920;28;20048;-70
2022/03/20 21:30:49;;;;;;;16.02;8.50;;;;;;;;;;10401834;28;20041;-69
2022/03/20 21:35:51;;;;;;;15.57;7.72;;;;;;;;;;10399878;28;20045;-68
2022/03/20 21:40:53;;;;;;;17.17;7.78;;;;;;;;;;10397731;28;20072;-67
2022/03/20 21:45:54;;;;;;;17.08;8.57;;;;;;;;;;10399896;28;20041;-68
2022/03/20 21:50:56;;;;;;;17.00;8.48;;;;;;;;;;10386793;28;20050;-68
2022/03/20 21:55:59;;;;;;;16.40;7.75;;;;;;;;;;10399788;28;20471;-67
2022/03/20 22:01:00;;;;;;;18.15;8.82;;;;;;;;;;10398665;28;20053;-68
2022/03/20 22:06:02;;;;;;;15.55;8.27;;;;;;;;;;10413055;28;20065;-68
2022/03/20 22:11:04;;;;;;;20.80;8.63;;;;;;;;;;10381082;28;20041;-70
2022/03/20 22:16:05;;;;;;;16.65;8.73;;;;;;;;;;10399061;28;20123;-71
2022/03/20 22:21:07;;;;;;;19.52;8.50;;;;;;;;;;10398923;28;20041;-68
2022/03/20 22:26:15;;;;;;;18.52;8.52;;;;;;;;;;10399854;28;20413;-68
2022/03/20 22:31:18;;;;;;;16.50;8.38;;;;;;;;;;10403440;28;20048;-69
2022/03/20 22:41:40;;;;;;;17.63;8.73;;;;;;;;;;10399966;28;20241;-68
2022/03/20 22:46:43;;;;;;;17.65;8.15;;;;;;;;;;10403039;28;20052;-69
2022/03/20 22:51:47;;;;;;;18.00;9.20;;;;;;;;;;10404290;28;20052;-68
2022/03/20 22:56:49;;;;;;;16.30;8.95;;;;;;;;;;10402870;28;20051;-69
2022/03/20 23:01:50;;;;;;;20.83;9.55;;;;;;;;;;10405622;28;20046;-68
2022/03/20 23:06:52;;;;;;;17.48;8.05;;;;;;;;;;10403614;28;20037;-67
2022/03/20 23:11:55;;;;;;;18.10;8.38;;;;;;;;;;10401649;28;20046;-68
2022/03/20 23:16:56;;;;;;;19.52;8.55;;;;;;;;;;10403179;28;20042;-68
2022/03/20 23:21:58;;;;;;;14.13;7.65;;;;;;;;;;10401392;28;20053;-72
2022/03/20 23:26:59;;;;;;;18.92;8.68;;;;;;;;;;10402922;28;20805;-68
2022/03/20 23:32:01;;;;;;;17.67;8.02;;;;;;;;;;10401053;28;20438;-67
2022/03/20 23:37:02;;;;;;;17.05;7.07;;;;;;;;;;10389802;28;20430;-68
2022/03/20 23:47:24;;;;;;;16.95;8.13;;;;;;;;;;10401294;28;20037;-68
2022/03/20 23:52:25;;;;;;;16.52;7.93;;;;;;;;;;10400493;28;20144;-67
2022/03/20 23:57:26;;;;;;;18.40;8.25;;;;;;;;;;10400268;28;20060;-67
